createdAt,value
2018-08-31T01:00:29.391Z,0.00
2018-08-31T01:01:29.334Z,0.00
2018-08-31T01:02:29.323Z,0.00
2018-08-31T01:03:29.318Z,0.00
2018-08-31T01:04:29.343Z,0.00
2018-08-31T01:05:29.292Z,0.00
2018-08-31T01:06:29.281Z,0.00
2018-08-31T01:07:29.265Z,0.00
2018-08-31T01:08:29.253Z,0.00
2018-08-31T01:09:29.303Z,0.00
2018-08-31T01:10:29.230Z,0.00
2018-08-31T01:11:29.223Z,0.00
2018-08-31T01:12:29.209Z,0.00
2018-08-31T01:13:29.199Z,0.00
2018-08-31T01:14:29.186Z,0.00
2018-08-31T01:15:29.220Z,0.00
2018-08-31T01:16:29.167Z,0.00
2018-08-31T01:17:29.163Z,0.00
2018-08-31T01:18:29.142Z,0.00
2018-08-31T01:19:29.132Z,0.00
2018-08-31T01:20:29.167Z,0.00
2018-08-31T01:21:29.108Z,0.00
2018-08-31T01:22:29.121Z,0.00
2018-08-31T01:23:29.086Z,0.00
2018-08-31T01:24:29.076Z,0.00
2018-08-31T01:25:29.108Z,0.00
2018-08-31T01:26:29.052Z,0.00
2018-08-31T01:27:29.043Z,0.00
2018-08-31T01:28:29.032Z,0.00
2018-08-31T01:29:29.018Z,0.00
2018-08-31T01:30:29.054Z,0.00
2018-08-31T01:31:29.000Z,0.00
2018-08-31T01:32:28.985Z,0.00
2018-08-31T01:33:28.974Z,0.00
2018-08-31T01:34:28.965Z,0.00
2018-08-31T01:35:28.999Z,0.00
2018-08-31T01:36:28.942Z,0.00
2018-08-31T01:37:28.938Z,0.00
2018-08-31T01:38:28.920Z,0.00
2018-08-31T01:39:28.906Z,0.00
2018-08-31T01:40:28.945Z,0.00
2018-08-31T01:41:28.886Z,0.00
2018-08-31T01:42:28.876Z,0.00
2018-08-31T01:43:28.865Z,0.00
2018-08-31T01:44:28.851Z,0.00
2018-08-31T01:45:28.897Z,0.00
2018-08-31T01:46:28.829Z,0.00
2018-08-31T01:47:28.818Z,0.00
2018-08-31T01:48:28.808Z,0.00
2018-08-31T01:49:28.801Z,0.00
2018-08-31T01:50:28.829Z,0.00
2018-08-31T01:51:28.774Z,0.00
2018-08-31T01:52:28.761Z,0.00
2018-08-31T01:53:28.749Z,0.00
2018-08-31T01:54:28.741Z,0.00
2018-08-31T01:55:28.775Z,0.00
2018-08-31T01:56:28.717Z,0.00
2018-08-31T01:57:28.706Z,0.00
2018-08-31T01:58:28.697Z,0.00
2018-08-31T01:59:28.685Z,0.00
2018-08-31T02:00:28.720Z,0.00
2018-08-31T02:01:28.665Z,0.00
2018-08-31T02:02:28.651Z,0.00
2018-08-31T02:03:28.640Z,0.00
2018-08-31T02:04:28.629Z,0.00
2018-08-31T02:05:28.671Z,0.00
2018-08-31T02:06:28.607Z,0.00
2018-08-31T02:07:28.599Z,0.00
2018-08-31T02:08:28.589Z,0.00
2018-08-31T02:09:28.571Z,0.00
2018-08-31T02:10:28.560Z,0.00
2018-08-31T02:11:28.595Z,0.00
2018-08-31T02:12:28.539Z,0.00
2018-08-31T02:13:28.527Z,0.00
2018-08-31T02:14:28.515Z,0.00
2018-08-31T02:15:28.505Z,0.00
2018-08-31T02:16:28.538Z,0.00
2018-08-31T02:17:28.485Z,0.00
2018-08-31T02:18:28.471Z,0.00
2018-08-31T02:19:28.462Z,0.00
2018-08-31T02:20:28.452Z,0.00
2018-08-31T02:21:28.492Z,0.00
2018-08-31T02:22:28.432Z,0.00
2018-08-31T02:23:28.417Z,0.00
2018-08-31T02:24:28.410Z,0.00
2018-08-31T02:25:28.395Z,0.00
2018-08-31T02:26:28.427Z,0.00
2018-08-31T02:27:28.379Z,0.00
2018-08-31T02:28:28.364Z,0.00
2018-08-31T02:29:28.352Z,0.00
2018-08-31T02:30:28.339Z,0.00
2018-08-31T02:31:28.373Z,0.00
2018-08-31T02:32:28.320Z,0.00
2018-08-31T02:33:28.309Z,0.00
2018-08-31T02:34:28.301Z,0.00
2018-08-31T02:35:28.282Z,0.00
2018-08-31T02:36:28.328Z,0.00
2018-08-31T02:37:28.261Z,0.00
2018-08-31T02:38:28.255Z,0.00
2018-08-31T02:39:28.240Z,0.00
2018-08-31T02:40:28.225Z,0.00
2018-08-31T02:41:28.261Z,0.00
2018-08-31T02:42:28.201Z,0.00
2018-08-31T02:43:28.191Z,0.00
2018-08-31T02:44:28.180Z,0.00
2018-08-31T02:45:28.170Z,0.00
2018-08-31T02:46:28.209Z,0.00
2018-08-31T02:47:28.161Z,0.00
2018-08-31T02:48:28.133Z,0.00
2018-08-31T02:49:28.127Z,0.00
2018-08-31T02:50:28.115Z,0.00
2018-08-31T02:51:28.149Z,0.00
2018-08-31T02:52:28.094Z,0.00
2018-08-31T02:53:28.086Z,0.00
2018-08-31T02:54:28.071Z,0.00
2018-08-31T02:55:28.054Z,0.00
2018-08-31T02:56:28.089Z,0.00
2018-08-31T02:57:28.034Z,0.00
2018-08-31T02:58:28.022Z,0.00
2018-08-31T02:59:28.023Z,0.00
2018-08-31T03:00:28.001Z,0.00
2018-08-31T03:01:28.042Z,0.00
2018-08-31T03:02:27.978Z,0.00
2018-08-31T03:03:27.965Z,0.00
2018-08-31T03:04:27.959Z,0.00
2018-08-31T03:05:27.947Z,0.00
2018-08-31T03:06:27.978Z,0.00
2018-08-31T03:07:27.924Z,0.00
2018-08-31T03:08:27.910Z,0.00
2018-08-31T03:09:27.897Z,0.00
2018-08-31T03:10:27.890Z,0.00
2018-08-31T03:11:27.930Z,0.00
2018-08-31T03:12:27.864Z,0.00
2018-08-31T03:13:27.857Z,0.00
2018-08-31T03:14:27.840Z,0.00
2018-08-31T03:15:27.829Z,0.00
2018-08-31T03:16:27.863Z,0.00
2018-08-31T03:17:27.807Z,0.00
2018-08-31T03:18:27.798Z,0.00
2018-08-31T03:19:27.788Z,0.00
2018-08-31T03:20:27.773Z,0.00
2018-08-31T03:21:27.949Z,0.00
2018-08-31T03:22:27.754Z,0.00
2018-08-31T03:23:27.738Z,0.00
2018-08-31T03:24:27.730Z,0.00
2018-08-31T03:25:27.717Z,0.00
2018-08-31T03:26:27.753Z,0.00
2018-08-31T03:27:27.697Z,0.00
2018-08-31T03:28:27.684Z,0.00
2018-08-31T03:29:27.671Z,0.00
2018-08-31T03:30:27.666Z,0.00
2018-08-31T03:31:27.696Z,0.00
2018-08-31T03:32:27.637Z,0.00
2018-08-31T03:33:27.634Z,0.00
2018-08-31T03:34:27.612Z,0.00
2018-08-31T03:35:27.608Z,0.00
2018-08-31T03:36:27.636Z,0.00
2018-08-31T03:37:27.582Z,0.00
2018-08-31T03:38:27.578Z,0.00
2018-08-31T03:39:27.567Z,0.00
2018-08-31T03:40:27.545Z,0.00
2018-08-31T03:41:27.595Z,0.00
2018-08-31T03:42:27.523Z,0.00
2018-08-31T03:43:27.536Z,0.00
2018-08-31T03:44:27.501Z,0.00
2018-08-31T03:45:27.489Z,0.00
2018-08-31T03:46:27.524Z,0.00
2018-08-31T03:47:27.470Z,0.00
2018-08-31T03:48:27.460Z,0.00
2018-08-31T03:49:27.452Z,0.00
2018-08-31T03:50:27.437Z,0.00
2018-08-31T03:51:27.471Z,0.00
2018-08-31T03:52:27.411Z,0.00
2018-08-31T03:53:27.408Z,0.00
2018-08-31T03:54:27.393Z,0.00
2018-08-31T03:55:27.377Z,0.00
2018-08-31T03:56:27.411Z,0.00
2018-08-31T03:57:27.353Z,0.00
2018-08-31T03:58:27.348Z,0.00
2018-08-31T03:59:27.343Z,0.00
2018-08-31T04:00:27.319Z,0.00
2018-08-31T04:01:27.361Z,0.00
2018-08-31T04:02:27.297Z,0.00
2018-08-31T04:03:27.287Z,0.00
2018-08-31T04:04:27.279Z,0.00
2018-08-31T04:05:27.262Z,0.00
2018-08-31T04:06:27.300Z,0.00
2018-08-31T04:07:27.242Z,0.00
2018-08-31T04:08:27.234Z,0.00
2018-08-31T04:09:27.220Z,0.00
2018-08-31T04:10:27.209Z,0.00
2018-08-31T04:11:27.250Z,0.00
2018-08-31T04:12:27.184Z,0.00
2018-08-31T04:13:27.188Z,0.00
2018-08-31T04:14:27.161Z,0.00
2018-08-31T04:15:27.153Z,0.00
2018-08-31T04:16:27.209Z,0.00
2018-08-31T04:17:27.130Z,0.00
2018-08-31T04:18:27.118Z,0.00
2018-08-31T04:19:27.106Z,0.00
2018-08-31T04:20:27.093Z,4.00
2018-08-31T04:21:27.128Z,4.00
2018-08-31T04:22:27.071Z,0.00
2018-08-31T04:23:27.059Z,4.00
2018-08-31T04:24:27.060Z,4.00
2018-08-31T04:25:27.039Z,4.00
2018-08-31T04:26:27.073Z,8.00
2018-08-31T04:27:27.026Z,8.00
2018-08-31T04:28:27.002Z,8.00
2018-08-31T04:29:27.000Z,12.00
2018-08-31T04:30:26.998Z,12.00
2018-08-31T04:31:26.971Z,12.00
2018-08-31T04:32:27.012Z,16.00
2018-08-31T04:33:26.947Z,16.00
2018-08-31T04:34:26.934Z,16.00
2018-08-31T04:35:26.925Z,20.00
2018-08-31T04:36:26.921Z,20.00
2018-08-31T04:37:26.947Z,24.00
2018-08-31T04:38:26.894Z,24.00
2018-08-31T04:39:26.881Z,28.00
2018-08-31T04:40:26.868Z,28.00
2018-08-31T04:41:26.856Z,32.00
2018-08-31T04:42:26.890Z,32.00
2018-08-31T04:43:26.834Z,36.00
2018-08-31T04:44:26.823Z,36.00
2018-08-31T04:45:26.814Z,40.00
2018-08-31T04:46:26.806Z,40.00
2018-08-31T04:47:26.839Z,40.00
2018-08-31T04:48:26.791Z,44.00
2018-08-31T04:49:26.768Z,52.00
2018-08-31T04:50:26.852Z,52.00
2018-08-31T04:51:26.744Z,60.00
2018-08-31T04:52:26.782Z,60.00
2018-08-31T04:53:26.723Z,72.00
2018-08-31T04:54:26.710Z,84.00
2018-08-31T04:55:26.698Z,88.00
2018-08-31T04:56:26.686Z,92.00
2018-08-31T04:57:26.722Z,96.00
2018-08-31T04:58:26.664Z,100.00
2018-08-31T04:59:26.660Z,100.00
2018-08-31T05:00:26.648Z,108.00
2018-08-31T05:01:26.630Z,108.00
2018-08-31T05:02:26.674Z,116.00
2018-08-31T05:03:26.610Z,116.00
2018-08-31T05:04:26.596Z,120.00
2018-08-31T05:05:26.583Z,124.00
2018-08-31T05:06:26.576Z,128.00
2018-08-31T05:07:26.620Z,136.00
2018-08-31T05:08:26.551Z,144.00
2018-08-31T05:09:26.538Z,160.00
2018-08-31T05:10:26.535Z,180.00
2018-08-31T05:11:26.524Z,188.00
2018-08-31T05:12:26.551Z,200.00
2018-08-31T05:13:26.506Z,212.00
2018-08-31T05:14:26.486Z,224.00
2018-08-31T05:15:26.474Z,244.00
2018-08-31T05:16:26.459Z,256.00
2018-08-31T05:17:26.498Z,272.00
2018-08-31T05:18:26.439Z,268.00
2018-08-31T05:19:26.425Z,276.00
2018-08-31T05:20:26.415Z,276.00
2018-08-31T05:21:26.406Z,276.00
2018-08-31T05:22:26.461Z,280.00
2018-08-31T05:23:26.380Z,300.00
2018-08-31T05:24:26.370Z,308.00
2018-08-31T05:25:26.361Z,320.00
2018-08-31T05:26:26.347Z,336.00
2018-08-31T05:27:26.381Z,352.00
2018-08-31T05:28:26.447Z,360.00
2018-08-31T05:29:26.314Z,384.00
2018-08-31T05:30:26.334Z,388.00
2018-08-31T05:31:26.296Z,400.00
2018-08-31T05:32:26.324Z,392.00
2018-08-31T05:33:26.279Z,388.00
2018-08-31T05:34:26.255Z,388.00
2018-08-31T05:35:26.243Z,380.00
2018-08-31T05:36:26.234Z,388.00
2018-08-31T05:37:26.269Z,408.00
2018-08-31T05:38:26.213Z,436.00
2018-08-31T05:39:26.200Z,424.00
2018-08-31T05:40:26.189Z,416.00
2018-08-31T05:41:26.180Z,416.00
2018-08-31T05:42:26.214Z,416.00
2018-08-31T05:43:26.153Z,444.00
2018-08-31T05:44:26.143Z,472.00
2018-08-31T05:45:26.136Z,504.00
2018-08-31T05:46:26.122Z,552.00
2018-08-31T05:47:26.159Z,596.00
2018-08-31T05:48:26.104Z,632.00
2018-08-31T05:49:26.089Z,672.00
2018-08-31T05:50:26.077Z,680.00
2018-08-31T05:51:26.067Z,704.00
2018-08-31T05:52:26.099Z,736.00
2018-08-31T05:53:26.078Z,736.00
2018-08-31T05:54:26.029Z,720.00
2018-08-31T05:55:26.023Z,712.00
2018-08-31T05:56:26.010Z,708.00
2018-08-31T05:57:26.042Z,744.00
2018-08-31T05:58:26.016Z,768.00
2018-08-31T05:59:25.976Z,812.00
2018-08-31T06:00:25.961Z,880.00
2018-08-31T06:01:25.950Z,956.00
2018-08-31T06:02:25.990Z,1028.00
2018-08-31T06:03:25.929Z,1076.00
2018-08-31T06:04:25.922Z,1132.00
2018-08-31T06:05:25.904Z,1232.00
2018-08-31T06:06:25.898Z,1264.00
2018-08-31T06:07:25.928Z,1268.00
2018-08-31T06:08:25.874Z,1312.00
2018-08-31T06:09:25.862Z,1332.00
2018-08-31T06:10:25.848Z,1380.00
2018-08-31T06:11:25.837Z,1424.00
2018-08-31T06:12:25.870Z,1384.00
2018-08-31T06:13:25.820Z,1408.00
2018-08-31T06:14:25.817Z,1460.00
2018-08-31T06:15:25.792Z,1452.00
2018-08-31T06:16:25.780Z,1456.00
2018-08-31T06:17:25.815Z,1480.00
2018-08-31T06:18:25.758Z,1520.00
2018-08-31T06:19:25.756Z,1540.00
2018-08-31T06:20:25.756Z,1476.00
2018-08-31T06:21:25.726Z,1504.00
2018-08-31T06:22:25.777Z,1464.00
2018-08-31T06:23:25.705Z,1436.00
2018-08-31T06:24:25.689Z,1444.00
2018-08-31T06:25:25.695Z,1372.00
2018-08-31T06:26:25.666Z,1328.00
2018-08-31T06:27:25.656Z,1292.00
2018-08-31T06:28:25.692Z,1228.00
2018-08-31T06:29:25.632Z,1212.00
2018-08-31T06:30:25.621Z,1164.00
2018-08-31T06:31:25.619Z,1132.00
2018-08-31T06:32:25.648Z,1148.00
2018-08-31T06:33:25.640Z,1152.00
2018-08-31T06:34:25.588Z,1124.00
2018-08-31T06:35:25.570Z,1116.00
2018-08-31T06:36:25.561Z,1120.00
2018-08-31T06:37:25.556Z,1104.00
2018-08-31T06:38:25.579Z,1084.00
2018-08-31T06:39:25.520Z,1100.00
2018-08-31T06:40:25.530Z,1072.00
2018-08-31T06:41:25.497Z,1096.00
2018-08-31T06:42:25.489Z,1092.00
2018-08-31T06:43:25.519Z,1084.00
2018-08-31T06:44:25.463Z,1092.00
2018-08-31T06:45:25.453Z,1112.00
2018-08-31T06:46:25.481Z,1140.00
2018-08-31T06:47:25.434Z,1136.00
2018-08-31T06:48:25.475Z,1176.00
2018-08-31T06:49:25.425Z,1284.00
2018-08-31T06:50:25.395Z,1328.00
2018-08-31T06:51:25.443Z,1388.00
2018-08-31T06:52:25.408Z,1500.00
2018-08-31T06:53:25.426Z,1660.00
2018-08-31T06:54:25.368Z,1832.00
2018-08-31T06:55:25.337Z,1972.00
2018-08-31T06:56:25.326Z,2144.00
2018-08-31T06:57:25.319Z,2180.00
2018-08-31T06:58:25.350Z,2356.00
2018-08-31T06:59:25.307Z,2408.00
2018-08-31T07:00:25.279Z,2344.00
2018-08-31T07:01:25.276Z,2420.00
2018-08-31T07:02:25.261Z,2408.00
2018-08-31T07:03:25.297Z,2408.00
2018-08-31T07:04:25.238Z,2452.00
2018-08-31T07:05:25.231Z,2452.00
2018-08-31T07:06:25.214Z,2452.00
2018-08-31T07:07:25.202Z,2604.00
2018-08-31T07:08:25.534Z,2748.00
2018-08-31T07:09:25.181Z,2884.00
2018-08-31T07:10:25.167Z,2796.00
2018-08-31T07:11:25.161Z,2768.00
2018-08-31T07:12:25.195Z,2848.00
2018-08-31T07:13:25.135Z,2976.00
2018-08-31T07:14:25.170Z,3144.00
2018-08-31T07:15:25.117Z,3452.00
2018-08-31T07:16:25.100Z,3584.00
2018-08-31T07:17:25.089Z,3700.00
2018-08-31T07:18:25.079Z,3924.00
2018-08-31T07:19:25.213Z,3880.00
2018-08-31T07:20:25.060Z,4044.00
2018-08-31T07:21:25.044Z,3860.00
2018-08-31T07:22:25.036Z,4040.00
2018-08-31T07:23:25.021Z,4132.00
2018-08-31T07:24:25.052Z,4896.00
2018-08-31T07:25:24.998Z,4692.00
2018-08-31T07:26:25.094Z,4524.00
2018-08-31T07:27:24.977Z,4928.00
2018-08-31T07:28:24.982Z,4284.00
2018-08-31T07:29:24.996Z,3892.00
2018-08-31T07:30:24.941Z,3816.00
2018-08-31T07:31:24.935Z,3848.00
2018-08-31T07:32:24.926Z,3800.00
2018-08-31T07:33:24.909Z,3964.00
2018-08-31T07:34:24.949Z,3752.00
2018-08-31T07:35:24.887Z,3808.00
2018-08-31T07:36:24.936Z,3564.00
2018-08-31T07:37:24.865Z,3492.00
2018-08-31T07:38:24.853Z,3548.00
2018-08-31T07:39:24.889Z,3428.00
2018-08-31T07:40:24.830Z,3348.00
2018-08-31T07:41:24.819Z,3412.00
2018-08-31T07:42:24.852Z,3416.00
2018-08-31T07:43:24.801Z,3552.00
2018-08-31T07:44:24.836Z,3552.00
2018-08-31T07:45:24.776Z,3568.00
2018-08-31T07:46:24.761Z,3540.00
2018-08-31T07:47:24.754Z,3680.00
2018-08-31T07:48:24.738Z,3756.00
2018-08-31T07:49:24.776Z,3780.00
2018-08-31T07:50:24.721Z,3736.00
2018-08-31T07:51:24.708Z,3648.00
2018-08-31T07:52:24.694Z,3664.00
2018-08-31T07:53:24.683Z,3688.00
2018-08-31T07:54:24.722Z,3528.00
2018-08-31T07:55:24.659Z,3336.00
2018-08-31T07:56:24.651Z,3076.00
2018-08-31T07:57:24.636Z,2980.00
2018-08-31T07:58:24.625Z,2796.00
2018-08-31T07:59:24.679Z,2832.00
2018-08-31T08:00:24.603Z,2700.00
2018-08-31T08:01:24.592Z,2740.00
2018-08-31T08:02:24.579Z,2716.00
2018-08-31T08:03:24.570Z,2664.00
2018-08-31T08:04:24.607Z,2672.00
2018-08-31T08:05:24.555Z,2556.00
2018-08-31T08:06:24.534Z,2568.00
2018-08-31T08:07:24.636Z,2464.00
2018-08-31T08:08:24.514Z,2388.00
2018-08-31T08:09:24.543Z,2424.00
2018-08-31T08:10:24.488Z,2376.00
2018-08-31T08:11:24.480Z,2404.00
2018-08-31T08:12:24.463Z,2360.00
2018-08-31T08:13:24.458Z,2348.00
2018-08-31T08:14:24.488Z,2364.00
2018-08-31T08:15:24.431Z,2520.00
2018-08-31T08:16:24.422Z,2572.00
2018-08-31T08:17:24.409Z,2508.00
2018-08-31T08:18:24.396Z,2468.00
2018-08-31T08:19:24.431Z,2416.00
2018-08-31T08:20:24.387Z,2496.00
2018-08-31T08:21:24.361Z,2644.00
2018-08-31T08:22:24.352Z,2856.00
2018-08-31T08:23:24.349Z,2968.00
2018-08-31T08:24:24.388Z,3124.00
2018-08-31T08:25:24.318Z,3268.00
2018-08-31T08:26:24.304Z,3324.00
2018-08-31T08:27:24.292Z,3424.00
2018-08-31T08:28:24.365Z,3428.00
2018-08-31T08:29:24.320Z,3424.00
2018-08-31T08:30:24.263Z,3612.00
2018-08-31T08:31:24.249Z,3500.00
2018-08-31T08:32:24.236Z,3420.00
2018-08-31T08:33:24.229Z,3424.00
2018-08-31T08:34:24.261Z,3412.00
2018-08-31T08:35:24.201Z,3388.00
2018-08-31T08:36:24.189Z,3576.00
2018-08-31T08:37:24.180Z,3592.00
2018-08-31T08:38:24.167Z,3700.00
2018-08-31T08:39:24.204Z,3884.00
2018-08-31T08:40:24.143Z,3904.00
2018-08-31T08:41:24.147Z,3960.00
2018-08-31T08:42:24.155Z,4112.00
2018-08-31T08:43:24.112Z,4188.00
2018-08-31T08:44:24.145Z,4232.00
2018-08-31T08:45:24.086Z,4092.00
2018-08-31T08:46:24.078Z,4044.00
2018-08-31T08:47:24.172Z,4040.00
2018-08-31T08:48:24.157Z,4156.00
2018-08-31T08:49:24.086Z,4344.00
2018-08-31T08:50:24.032Z,4452.00
2018-08-31T08:51:24.016Z,4396.00
2018-08-31T08:52:24.012Z,4528.00
2018-08-31T08:53:23.995Z,4492.00
2018-08-31T08:54:24.033Z,4640.00
2018-08-31T08:55:23.972Z,5088.00
2018-08-31T08:56:23.961Z,5088.00
2018-08-31T08:57:23.957Z,4972.00
2018-08-31T08:58:24.015Z,5068.00
2018-08-31T08:59:23.977Z,5236.00
2018-08-31T09:00:23.916Z,5280.00
2018-08-31T09:01:23.914Z,5192.00
2018-08-31T09:02:23.892Z,5284.00
2018-08-31T09:03:23.889Z,5520.00
2018-08-31T09:04:23.918Z,5492.00
2018-08-31T09:05:23.880Z,5500.00
2018-08-31T09:06:23.848Z,5480.00
2018-08-31T09:07:23.845Z,5120.00
2018-08-31T09:08:23.839Z,4792.00
2018-08-31T09:09:23.857Z,4452.00
2018-08-31T09:10:23.803Z,4132.00
2018-08-31T09:11:23.788Z,3812.00
2018-08-31T09:12:23.787Z,3640.00
2018-08-31T09:13:23.770Z,3560.00
2018-08-31T09:14:23.801Z,3456.00
2018-08-31T09:15:23.900Z,3300.00
2018-08-31T09:16:23.735Z,3148.00
2018-08-31T09:17:23.748Z,3184.00
2018-08-31T09:18:23.738Z,3060.00
2018-08-31T09:19:23.753Z,2980.00
2018-08-31T09:20:23.783Z,2964.00
2018-08-31T09:21:23.676Z,3124.00
2018-08-31T09:22:23.674Z,3100.00
2018-08-31T09:23:23.651Z,3208.00
2018-08-31T09:24:23.698Z,3244.00
2018-08-31T09:25:23.640Z,3472.00
2018-08-31T09:26:23.620Z,3648.00
2018-08-31T09:27:23.611Z,3924.00
2018-08-31T09:28:23.601Z,4112.00
2018-08-31T09:29:23.588Z,4260.00
2018-08-31T09:30:23.624Z,4472.00
2018-08-31T09:31:23.567Z,4624.00
2018-08-31T09:32:23.552Z,4728.00
2018-08-31T09:33:23.553Z,4984.00
2018-08-31T09:34:23.530Z,5612.00
2018-08-31T09:35:23.573Z,5680.00
2018-08-31T09:36:23.510Z,5944.00
2018-08-31T09:37:23.497Z,6388.00
2018-08-31T09:38:23.551Z,6608.00
2018-08-31T09:39:23.478Z,6652.00
2018-08-31T09:40:23.508Z,6668.00
2018-08-31T09:41:23.480Z,6408.00
2018-08-31T09:42:23.442Z,6376.00
2018-08-31T09:43:23.428Z,6644.00
2018-08-31T09:44:23.419Z,7032.00
2018-08-31T09:45:23.616Z,7468.00
2018-08-31T09:46:23.396Z,7464.00
2018-08-31T09:47:23.386Z,7476.00
2018-08-31T09:48:23.373Z,7512.00
2018-08-31T09:49:23.360Z,7696.00
2018-08-31T09:50:23.397Z,7628.00
2018-08-31T09:51:23.345Z,7588.00
2018-08-31T09:52:23.332Z,8436.00
2018-08-31T09:53:23.318Z,8000.00
2018-08-31T09:54:23.308Z,7672.00
2018-08-31T09:55:23.340Z,6544.00
2018-08-31T09:56:23.280Z,5688.00
2018-08-31T09:57:23.296Z,5024.00
2018-08-31T09:58:23.263Z,4752.00
2018-08-31T09:59:23.249Z,4868.00
2018-08-31T10:00:23.312Z,4928.00
2018-08-31T10:01:23.231Z,5212.00
2018-08-31T10:02:23.220Z,5576.00
2018-08-31T10:03:23.203Z,6068.00
2018-08-31T10:04:23.195Z,6204.00
2018-08-31T10:05:23.235Z,6528.00
2018-08-31T10:06:23.187Z,6960.00
2018-08-31T10:07:23.157Z,7324.00
2018-08-31T10:08:23.146Z,8136.00
2018-08-31T10:09:23.134Z,7732.00
2018-08-31T10:10:23.170Z,7304.00
2018-08-31T10:11:23.111Z,7504.00
2018-08-31T10:12:23.104Z,7316.00
2018-08-31T10:13:23.104Z,6988.00
2018-08-31T10:14:23.085Z,5904.00
2018-08-31T10:15:23.112Z,5276.00
2018-08-31T10:16:23.055Z,4720.00
2018-08-31T10:17:23.044Z,4728.00
2018-08-31T10:18:23.036Z,4616.00
2018-08-31T10:19:23.023Z,6148.00
2018-08-31T10:20:23.061Z,5192.00
2018-08-31T10:21:23.004Z,4952.00
2018-08-31T10:22:22.989Z,5096.00
2018-08-31T10:23:22.978Z,5172.00
2018-08-31T10:24:22.973Z,5380.00
2018-08-31T10:25:23.000Z,5800.00
2018-08-31T10:26:22.950Z,5448.00
2018-08-31T10:27:22.931Z,4876.00
2018-08-31T10:28:22.921Z,4448.00
2018-08-31T10:29:22.910Z,4100.00
2018-08-31T10:30:22.942Z,3596.00
2018-08-31T10:31:22.884Z,3480.00
2018-08-31T10:32:22.877Z,3696.00
2018-08-31T10:33:22.863Z,4588.00
2018-08-31T10:34:22.853Z,6492.00
2018-08-31T10:35:22.884Z,5824.00
2018-08-31T10:36:22.830Z,12548.00
2018-08-31T10:37:22.819Z,8780.00
2018-08-31T10:38:22.809Z,16320.00
2018-08-31T10:39:22.794Z,6224.00
2018-08-31T10:40:22.854Z,11696.00
2018-08-31T10:41:22.774Z,4352.00
2018-08-31T10:42:22.764Z,5196.00
2018-08-31T10:43:22.759Z,7016.00
2018-08-31T10:44:22.742Z,4760.00
2018-08-31T10:45:22.777Z,4396.00
2018-08-31T10:46:22.724Z,4792.00
2018-08-31T10:47:22.708Z,5288.00
2018-08-31T10:48:22.696Z,5516.00
2018-08-31T10:49:22.684Z,4968.00
2018-08-31T10:50:22.720Z,5228.00
2018-08-31T10:51:22.667Z,5656.00
2018-08-31T10:52:22.651Z,6376.00
2018-08-31T10:53:22.640Z,6140.00
2018-08-31T10:54:22.628Z,5768.00
2018-08-31T10:55:22.663Z,5936.00
2018-08-31T10:56:22.608Z,6164.00
2018-08-31T10:57:22.609Z,6280.00
2018-08-31T10:58:22.585Z,5972.00
2018-08-31T10:59:22.579Z,5748.00
2018-08-31T11:00:22.607Z,6368.00
2018-08-31T11:01:22.551Z,6284.00
2018-08-31T11:02:22.539Z,6920.00
2018-08-31T11:03:22.528Z,7140.00
2018-08-31T11:04:22.517Z,6996.00
2018-08-31T11:05:22.650Z,7648.00
2018-08-31T11:06:22.497Z,7776.00
2018-08-31T11:07:22.485Z,7876.00
2018-08-31T11:08:22.472Z,7220.00
2018-08-31T11:09:22.462Z,6988.00
2018-08-31T11:10:22.503Z,6604.00
2018-08-31T11:11:22.446Z,5992.00
2018-08-31T11:12:22.437Z,6124.00
2018-08-31T11:13:22.423Z,5896.00
2018-08-31T11:14:22.406Z,6024.00
2018-08-31T11:15:22.460Z,5948.00
2018-08-31T11:16:22.430Z,5612.00
2018-08-31T11:17:22.375Z,5400.00
2018-08-31T11:18:22.366Z,5712.00
2018-08-31T11:19:22.361Z,6376.00
2018-08-31T11:20:22.337Z,6996.00
2018-08-31T11:21:22.373Z,7168.00
2018-08-31T11:22:22.313Z,7800.00
2018-08-31T11:23:22.304Z,8208.00
2018-08-31T11:24:22.294Z,8460.00
2018-08-31T11:25:22.280Z,8216.00
2018-08-31T11:26:22.324Z,7788.00
2018-08-31T11:27:22.258Z,7636.00
2018-08-31T11:28:22.252Z,7324.00
2018-08-31T11:29:22.240Z,6696.00
2018-08-31T11:30:22.225Z,6520.00
2018-08-31T11:31:22.262Z,6896.00
2018-08-31T11:32:22.208Z,7184.00
2018-08-31T11:33:22.191Z,6808.00
2018-08-31T11:34:22.181Z,6852.00
2018-08-31T11:35:22.173Z,6764.00
2018-08-31T11:36:22.204Z,6312.00
2018-08-31T11:37:22.146Z,6132.00
2018-08-31T11:38:22.135Z,6124.00
2018-08-31T11:39:22.125Z,6212.00
2018-08-31T11:40:22.117Z,6208.00
2018-08-31T11:41:22.145Z,6124.00
2018-08-31T11:42:22.089Z,5964.00
2018-08-31T11:43:22.104Z,5668.00
2018-08-31T11:44:22.069Z,5272.00
2018-08-31T11:45:22.060Z,5608.00
2018-08-31T11:46:22.089Z,6032.00
2018-08-31T11:47:22.033Z,6492.00
2018-08-31T11:48:22.026Z,6752.00
2018-08-31T11:49:22.012Z,7132.00
2018-08-31T11:50:22.000Z,7660.00
2018-08-31T11:51:22.035Z,7952.00
2018-08-31T11:52:21.981Z,8040.00
2018-08-31T11:53:21.964Z,7520.00
2018-08-31T11:54:21.952Z,7436.00
2018-08-31T11:55:22.058Z,6748.00
2018-08-31T11:56:21.984Z,6548.00
2018-08-31T11:57:21.922Z,6416.00
2018-08-31T11:58:21.948Z,6248.00
2018-08-31T11:59:21.899Z,6616.00
2018-08-31T12:00:21.883Z,6780.00
2018-08-31T12:01:21.971Z,7272.00
2018-08-31T12:02:21.864Z,6628.00
2018-08-31T12:03:21.856Z,6208.00
2018-08-31T12:04:21.843Z,6168.00
2018-08-31T12:05:21.827Z,6036.00
2018-08-31T12:06:21.859Z,6292.00
2018-08-31T12:07:21.809Z,7116.00
2018-08-31T12:08:21.793Z,8772.00
2018-08-31T12:09:21.783Z,9232.00
2018-08-31T12:10:21.774Z,9244.00
2018-08-31T12:11:21.804Z,8984.00
2018-08-31T12:12:21.750Z,10332.00
2018-08-31T12:13:21.743Z,11592.00
2018-08-31T12:14:21.723Z,9416.00
2018-08-31T12:15:21.712Z,7784.00
2018-08-31T12:16:21.747Z,7492.00
2018-08-31T12:17:21.695Z,7216.00
2018-08-31T12:18:21.682Z,6812.00
2018-08-31T12:19:21.666Z,6788.00
2018-08-31T12:20:21.661Z,7036.00
2018-08-31T12:21:21.821Z,6848.00
2018-08-31T12:22:21.632Z,7040.00
2018-08-31T12:23:21.623Z,6724.00
2018-08-31T12:24:21.610Z,6244.00
2018-08-31T12:25:21.598Z,5992.00
2018-08-31T12:26:21.630Z,6140.00
2018-08-31T12:27:21.576Z,7112.00
2018-08-31T12:28:21.602Z,6944.00
2018-08-31T12:29:21.555Z,5860.00
2018-08-31T12:30:21.546Z,5064.00
2018-08-31T12:31:21.584Z,3700.00
2018-08-31T12:32:21.519Z,3364.00
2018-08-31T12:33:21.506Z,3308.00
2018-08-31T12:34:21.500Z,2768.00
2018-08-31T12:35:21.485Z,2720.00
2018-08-31T12:36:21.518Z,2696.00
2018-08-31T12:37:21.461Z,2732.00
2018-08-31T12:38:21.452Z,2856.00
2018-08-31T12:39:21.450Z,3004.00
2018-08-31T12:40:21.426Z,3052.00
2018-08-31T12:41:21.460Z,3128.00
2018-08-31T12:42:21.403Z,3140.00
2018-08-31T12:43:21.390Z,3228.00
2018-08-31T12:44:21.395Z,3436.00
2018-08-31T12:45:21.369Z,3780.00
2018-08-31T12:46:21.401Z,4092.00
2018-08-31T12:47:21.346Z,4408.00
2018-08-31T12:48:21.338Z,4812.00
2018-08-31T12:49:21.322Z,5240.00
2018-08-31T12:50:21.319Z,5456.00
2018-08-31T12:51:21.349Z,5656.00
2018-08-31T12:52:21.289Z,5740.00
2018-08-31T12:53:21.282Z,5768.00
2018-08-31T12:54:21.269Z,5556.00
2018-08-31T12:55:21.256Z,5268.00
2018-08-31T12:56:21.290Z,4916.00
2018-08-31T12:57:21.239Z,4688.00
2018-08-31T12:58:21.220Z,4308.00
2018-08-31T12:59:21.219Z,4108.00
2018-08-31T13:00:21.199Z,4056.00
2018-08-31T13:01:21.235Z,4244.00
2018-08-31T13:02:21.176Z,4480.00
2018-08-31T13:03:21.203Z,5064.00
2018-08-31T13:04:21.152Z,5092.00
2018-08-31T13:05:21.146Z,5244.00
2018-08-31T13:06:21.188Z,5376.00
2018-08-31T13:07:21.117Z,5512.00
2018-08-31T13:08:21.106Z,5184.00
2018-08-31T13:09:21.095Z,5076.00
2018-08-31T13:10:21.084Z,5108.00
2018-08-31T13:11:21.073Z,5072.00
2018-08-31T13:12:21.106Z,5076.00
2018-08-31T13:13:21.049Z,5148.00
2018-08-31T13:14:21.047Z,5220.00
2018-08-31T13:15:21.027Z,5072.00
2018-08-31T13:16:21.017Z,5024.00
2018-08-31T13:17:21.052Z,4812.00
2018-08-31T13:18:20.994Z,4544.00
2018-08-31T13:19:20.981Z,4404.00
2018-08-31T13:20:20.973Z,4280.00
2018-08-31T13:21:20.961Z,4172.00
2018-08-31T13:22:20.999Z,4104.00
2018-08-31T13:23:20.939Z,4104.00
2018-08-31T13:24:20.926Z,4248.00
2018-08-31T13:25:20.982Z,4220.00
2018-08-31T13:26:20.944Z,4348.00
2018-08-31T13:27:20.945Z,4312.00
2018-08-31T13:28:20.889Z,4408.00